sensor_id;sensor_type;location;lat;lon;timestamp;P1;durP1;ratioP1;P2;durP2;ratioP2
53801;SDS011;39709;53.334;6.534;2023-08-24T00:00:56;7.22;;;3.63;;
53801;SDS011;39709;53.334;6.534;2023-08-24T00:03:22;9.93;;;4.30;;
53801;SDS011;39709;53.334;6.534;2023-08-24T00:05:48;8.27;;;4.30;;
53801;SDS011;39709;53.334;6.534;2023-08-24T00:08:14;10.23;;;4.75;;
53801;SDS011;39709;53.334;6.534;2023-08-24T00:10:42;9.73;;;4.30;;
53801;SDS011;39709;53.334;6.534;2023-08-24T00:13:11;10.80;;;4.50;;
53801;SDS011;39709;53.334;6.534;2023-08-24T00:15:37;8.88;;;4.32;;
53801;SDS011;39709;53.334;6.534;2023-08-24T00:18:04;9.30;;;4.35;;
53801;SDS011;39709;53.334;6.534;2023-08-24T00:20:31;7.97;;;4.07;;
53801;SDS011;39709;53.334;6.534;2023-08-24T00:22:59;8.52;;;4.50;;
53801;SDS011;39709;53.334;6.534;2023-08-24T00:25:25;8.40;;;4.23;;
53801;SDS011;39709;53.334;6.534;2023-08-24T00:27:52;8.18;;;4.57;;
53801;SDS011;39709;53.334;6.534;2023-08-24T00:30:19;10.48;;;4.32;;
53801;SDS011;39709;53.334;6.534;2023-08-24T00:32:45;8.50;;;4.20;;
53801;SDS011;39709;53.334;6.534;2023-08-24T00:35:10;7.80;;;4.13;;
53801;SDS011;39709;53.334;6.534;2023-08-24T00:37:36;9.23;;;4.73;;
53801;SDS011;39709;53.334;6.534;2023-08-24T00:40:03;8.23;;;4.10;;
53801;SDS011;39709;53.334;6.534;2023-08-24T00:42:40;11.60;;;4.70;;
53801;SDS011;39709;53.334;6.534;2023-08-24T00:45:07;10.57;;;4.20;;
53801;SDS011;39709;53.334;6.534;2023-08-24T00:47:34;7.00;;;3.80;;
53801;SDS011;39709;53.334;6.534;2023-08-24T00:50:05;7.70;;;4.13;;
53801;SDS011;39709;53.334;6.534;2023-08-24T00:52:32;9.83;;;4.37;;
53801;SDS011;39709;53.334;6.534;2023-08-24T00:55:01;7.97;;;3.70;;
53801;SDS011;39709;53.334;6.534;2023-08-24T00:57:27;9.20;;;4.28;;
53801;SDS011;39709;53.334;6.534;2023-08-24T00:59:54;8.60;;;4.32;;
53801;SDS011;39709;53.334;6.534;2023-08-24T01:02:21;9.20;;;4.13;;
53801;SDS011;39709;53.334;6.534;2023-08-24T01:04:47;8.97;;;3.97;;
53801;SDS011;39709;53.334;6.534;2023-08-24T01:07:13;9.38;;;4.10;;
53801;SDS011;39709;53.334;6.534;2023-08-24T01:09:39;9.32;;;3.70;;
53801;SDS011;39709;53.334;6.534;2023-08-24T01:15:04;8.25;;;3.67;;
53801;SDS011;39709;53.334;6.534;2023-08-24T01:17:30;7.63;;;3.65;;
53801;SDS011;39709;53.334;6.534;2023-08-24T01:19:57;7.63;;;3.33;;
53801;SDS011;39709;53.334;6.534;2023-08-24T01:27:41;6.68;;;2.45;;
53801;SDS011;39709;53.334;6.534;2023-08-24T01:30:08;7.65;;;3.17;;
53801;SDS011;39709;53.334;6.534;2023-08-24T01:32:34;9.88;;;2.97;;
53801;SDS011;39709;53.334;6.534;2023-08-24T01:35:04;7.47;;;2.78;;
53801;SDS011;39709;53.334;6.534;2023-08-24T01:37:32;6.30;;;2.30;;
53801;SDS011;39709;53.334;6.534;2023-08-24T01:40:19;6.28;;;2.50;;
53801;SDS011;39709;53.334;6.534;2023-08-24T01:43:07;7.53;;;2.85;;
53801;SDS011;39709;53.334;6.534;2023-08-24T01:45:34;6.22;;;2.60;;
53801;SDS011;39709;53.334;6.534;2023-08-24T01:48:02;6.40;;;2.30;;
53801;SDS011;39709;53.334;6.534;2023-08-24T01:50:29;6.45;;;2.30;;
53801;SDS011;39709;53.334;6.534;2023-08-24T01:52:55;6.88;;;2.38;;
53801;SDS011;39709;53.334;6.534;2023-08-24T01:55:22;5.72;;;2.35;;
53801;SDS011;39709;53.334;6.534;2023-08-24T01:57:48;6.32;;;2.20;;
53801;SDS011;39709;53.334;6.534;2023-08-24T02:00:14;6.10;;;2.40;;
53801;SDS011;39709;53.334;6.534;2023-08-24T02:02:44;7.18;;;2.65;;
53801;SDS011;39709;53.334;6.534;2023-08-24T02:05:09;6.35;;;2.58;;
53801;SDS011;39709;53.334;6.534;2023-08-24T02:07:35;9.43;;;2.73;;
53801;SDS011;39709;53.334;6.534;2023-08-24T02:10:01;7.55;;;2.90;;
53801;SDS011;39709;53.334;6.534;2023-08-24T02:12:27;8.73;;;2.80;;
53801;SDS011;39709;53.334;6.534;2023-08-24T02:14:52;8.67;;;3.37;;
53801;SDS011;39709;53.334;6.534;2023-08-24T02:17:18;7.85;;;3.13;;
53801;SDS011;39709;53.334;6.534;2023-08-24T02:19:44;8.33;;;3.70;;
53801;SDS011;39709;53.334;6.534;2023-08-24T02:22:09;7.13;;;3.38;;
53801;SDS011;39709;53.334;6.534;2023-08-24T02:24:35;7.87;;;3.43;;
53801;SDS011;39709;53.334;6.534;2023-08-24T02:27:01;7.23;;;3.20;;
53801;SDS011;39709;53.334;6.534;2023-08-24T02:29:26;9.30;;;3.28;;
53801;SDS011;39709;53.334;6.534;2023-08-24T02:31:53;9.07;;;3.50;;
53801;SDS011;39709;53.334;6.534;2023-08-24T02:34:18;7.63;;;3.75;;
53801;SDS011;39709;53.334;6.534;2023-08-24T02:36:44;9.03;;;4.57;;
53801;SDS011;39709;53.334;6.534;2023-08-24T02:39:10;9.32;;;5.28;;
53801;SDS011;39709;53.334;6.534;2023-08-24T02:41:36;10.83;;;5.40;;
53801;SDS011;39709;53.334;6.534;2023-08-24T02:44:02;10.60;;;5.00;;
53801;SDS011;39709;53.334;6.534;2023-08-24T02:46:28;8.90;;;4.88;;
53801;SDS011;39709;53.334;6.534;2023-08-24T02:48:54;9.17;;;4.97;;
53801;SDS011;39709;53.334;6.534;2023-08-24T02:51:23;9.55;;;4.50;;
53801;SDS011;39709;53.334;6.534;2023-08-24T02:53:49;9.13;;;4.55;;
53801;SDS011;39709;53.334;6.534;2023-08-24T02:56:15;11.53;;;5.17;;
53801;SDS011;39709;53.334;6.534;2023-08-24T02:58:41;9.98;;;5.47;;
53801;SDS011;39709;53.334;6.534;2023-08-24T03:01:07;11.05;;;5.88;;
53801;SDS011;39709;53.334;6.534;2023-08-24T03:03:36;10.93;;;5.83;;
53801;SDS011;39709;53.334;6.534;2023-08-24T03:06:03;10.55;;;5.75;;
53801;SDS011;39709;53.334;6.534;2023-08-24T03:08:30;13.60;;;6.15;;
53801;SDS011;39709;53.334;6.534;2023-08-24T03:10:57;14.30;;;6.22;;
53801;SDS011;39709;53.334;6.534;2023-08-24T03:13:24;10.50;;;5.95;;
53801;SDS011;39709;53.334;6.534;2023-08-24T03:15:50;10.83;;;5.40;;
53801;SDS011;39709;53.334;6.534;2023-08-24T03:18:17;11.68;;;5.13;;
53801;SDS011;39709;53.334;6.534;2023-08-24T03:20:44;9.50;;;4.68;;
53801;SDS011;39709;53.334;6.534;2023-08-24T03:23:11;8.40;;;3.70;;
53801;SDS011;39709;53.334;6.534;2023-08-24T03:25:37;8.70;;;4.40;;
53801;SDS011;39709;53.334;6.534;2023-08-24T03:28:05;7.82;;;4.00;;
53801;SDS011;39709;53.334;6.534;2023-08-24T03:30:35;9.85;;;4.40;;
53801;SDS011;39709;53.334;6.534;2023-08-24T03:33:01;9.75;;;4.65;;
53801;SDS011;39709;53.334;6.534;2023-08-24T03:35:31;9.55;;;5.22;;
53801;SDS011;39709;53.334;6.534;2023-08-24T03:37:57;8.03;;;4.37;;
53801;SDS011;39709;53.334;6.534;2023-08-24T03:40:23;8.63;;;4.22;;
53801;SDS011;39709;53.334;6.534;2023-08-24T03:42:49;12.00;;;4.50;;
53801;SDS011;39709;53.334;6.534;2023-08-24T03:45:15;10.32;;;5.18;;
53801;SDS011;39709;53.334;6.534;2023-08-24T03:47:41;12.03;;;5.50;;
53801;SDS011;39709;53.334;6.534;2023-08-24T03:50:07;9.50;;;4.90;;
53801;SDS011;39709;53.334;6.534;2023-08-24T03:52:33;11.17;;;5.93;;
53801;SDS011;39709;53.334;6.534;2023-08-24T03:54:59;13.82;;;6.32;;
53801;SDS011;39709;53.334;6.534;2023-08-24T03:57:24;10.73;;;6.37;;
53801;SDS011;39709;53.334;6.534;2023-08-24T03:59:50;13.35;;;5.70;;
53801;SDS011;39709;53.334;6.534;2023-08-24T04:02:16;16.33;;;6.63;;
53801;SDS011;39709;53.334;6.534;2023-08-24T04:04:42;14.38;;;7.07;;
53801;SDS011;39709;53.334;6.534;2023-08-24T04:07:08;11.98;;;6.57;;
53801;SDS011;39709;53.334;6.534;2023-08-24T04:09:34;12.77;;;6.87;;
53801;SDS011;39709;53.334;6.534;2023-08-24T04:12:00;12.57;;;6.85;;
53801;SDS011;39709;53.334;6.534;2023-08-24T04:14:25;15.10;;;6.57;;
53801;SDS011;39709;53.334;6.534;2023-08-24T04:16:51;12.93;;;6.30;;
53801;SDS011;39709;53.334;6.534;2023-08-24T04:19:17;12.68;;;6.03;;
53801;SDS011;39709;53.334;6.534;2023-08-24T04:21:43;13.27;;;6.40;;
53801;SDS011;39709;53.334;6.534;2023-08-24T04:24:08;13.53;;;6.10;;
53801;SDS011;39709;53.334;6.534;2023-08-24T04:26:34;15.32;;;6.38;;
53801;SDS011;39709;53.334;6.534;2023-08-24T04:29:00;12.23;;;6.37;;
53801;SDS011;39709;53.334;6.534;2023-08-24T04:31:25;12.80;;;6.10;;
53801;SDS011;39709;53.334;6.534;2023-08-24T04:33:51;13.43;;;6.07;;
53801;SDS011;39709;53.334;6.534;2023-08-24T04:36:17;11.27;;;6.13;;
53801;SDS011;39709;53.334;6.534;2023-08-24T04:38:42;11.05;;;5.90;;
53801;SDS011;39709;53.334;6.534;2023-08-24T04:41:09;10.82;;;6.10;;
53801;SDS011;39709;53.334;6.534;2023-08-24T04:43:36;12.97;;;5.90;;
53801;SDS011;39709;53.334;6.534;2023-08-24T04:46:02;12.13;;;5.57;;
53801;SDS011;39709;53.334;6.534;2023-08-24T04:48:27;12.00;;;5.95;;
53801;SDS011;39709;53.334;6.534;2023-08-24T04:50:57;14.33;;;6.27;;
53801;SDS011;39709;53.334;6.534;2023-08-24T04:53:24;10.88;;;5.63;;
53801;SDS011;39709;53.334;6.534;2023-08-24T04:55:50;11.95;;;5.63;;
53801;SDS011;39709;53.334;6.534;2023-08-24T04:58:15;10.90;;;5.63;;
53801;SDS011;39709;53.334;6.534;2023-08-24T05:00:41;12.67;;;5.67;;
53801;SDS011;39709;53.334;6.534;2023-08-24T05:03:07;12.82;;;5.97;;
53801;SDS011;39709;53.334;6.534;2023-08-24T05:05:33;12.63;;;5.75;;
53801;SDS011;39709;53.334;6.534;2023-08-24T05:08:00;10.93;;;5.57;;
53801;SDS011;39709;53.334;6.534;2023-08-24T05:10:30;13.02;;;5.55;;
53801;SDS011;39709;53.334;6.534;2023-08-24T05:12:59;11.70;;;5.07;;
53801;SDS011;39709;53.334;6.534;2023-08-24T05:15:25;10.90;;;5.60;;
53801;SDS011;39709;53.334;6.534;2023-08-24T05:17:51;10.50;;;5.00;;
53801;SDS011;39709;53.334;6.534;2023-08-24T05:20:20;9.68;;;4.97;;
53801;SDS011;39709;53.334;6.534;2023-08-24T05:22:46;10.60;;;5.22;;
53801;SDS011;39709;53.334;6.534;2023-08-24T05:25:12;12.30;;;5.40;;
53801;SDS011;39709;53.334;6.534;2023-08-24T05:27:38;13.43;;;5.43;;
53801;SDS011;39709;53.334;6.534;2023-08-24T05:30:05;9.80;;;4.95;;
53801;SDS011;39709;53.334;6.534;2023-08-24T05:32:31;9.80;;;5.30;;
53801;SDS011;39709;53.334;6.534;2023-08-24T05:34:57;9.88;;;5.07;;
53801;SDS011;39709;53.334;6.534;2023-08-24T05:37:23;12.90;;;5.47;;
53801;SDS011;39709;53.334;6.534;2023-08-24T05:39:49;9.88;;;5.10;;
53801;SDS011;39709;53.334;6.534;2023-08-24T05:42:15;11.57;;;5.70;;
53801;SDS011;39709;53.334;6.534;2023-08-24T05:44:40;15.10;;;6.07;;
53801;SDS011;39709;53.334;6.534;2023-08-24T05:47:06;11.10;;;5.50;;
53801;SDS011;39709;53.334;6.534;2023-08-24T05:49:32;10.60;;;5.97;;
53801;SDS011;39709;53.334;6.534;2023-08-24T05:51:57;12.30;;;5.60;;
53801;SDS011;39709;53.334;6.534;2023-08-24T05:54:23;11.40;;;5.20;;
53801;SDS011;39709;53.334;6.534;2023-08-24T05:56:49;10.07;;;4.30;;
53801;SDS011;39709;53.334;6.534;2023-08-24T05:59:14;12.73;;;5.50;;
53801;SDS011;39709;53.334;6.534;2023-08-24T06:01:40;11.00;;;5.70;;
53801;SDS011;39709;53.334;6.534;2023-08-24T06:04:09;10.55;;;5.10;;
53801;SDS011;39709;53.334;6.534;2023-08-24T06:06:36;11.32;;;5.85;;
53801;SDS011;39709;53.334;6.534;2023-08-24T06:09:02;12.93;;;5.37;;
53801;SDS011;39709;53.334;6.534;2023-08-24T06:11:30;11.55;;;6.07;;
53801;SDS011;39709;53.334;6.534;2023-08-24T06:13:57;13.27;;;5.60;;
53801;SDS011;39709;53.334;6.534;2023-08-24T06:16:23;13.27;;;6.47;;
53801;SDS011;39709;53.334;6.534;2023-08-24T06:18:48;10.57;;;6.13;;
53801;SDS011;39709;53.334;6.534;2023-08-24T06:21:15;13.85;;;6.07;;
53801;SDS011;39709;53.334;6.534;2023-08-24T06:23:41;13.77;;;5.47;;
53801;SDS011;39709;53.334;6.534;2023-08-24T06:26:07;11.63;;;6.10;;
53801;SDS011;39709;53.334;6.534;2023-08-24T06:28:33;14.25;;;6.07;;
53801;SDS011;39709;53.334;6.534;2023-08-24T06:30:59;11.87;;;5.83;;
53801;SDS011;39709;53.334;6.534;2023-08-24T06:33:29;11.38;;;5.18;;
53801;SDS011;39709;53.334;6.534;2023-08-24T06:35:58;10.00;;;5.25;;
53801;SDS011;39709;53.334;6.534;2023-08-24T06:38:24;10.93;;;5.23;;
53801;SDS011;39709;53.334;6.534;2023-08-24T06:40:50;10.30;;;4.60;;
53801;SDS011;39709;53.334;6.534;2023-08-24T06:43:15;9.43;;;4.28;;
53801;SDS011;39709;53.334;6.534;2023-08-24T06:45:41;11.73;;;4.80;;
53801;SDS011;39709;53.334;6.534;2023-08-24T06:48:08;12.38;;;4.50;;
53801;SDS011;39709;53.334;6.534;2023-08-24T06:50:34;10.20;;;4.50;;
53801;SDS011;39709;53.334;6.534;2023-08-24T06:53:01;13.48;;;4.43;;
53801;SDS011;39709;53.334;6.534;2023-08-24T06:55:28;8.88;;;3.83;;
53801;SDS011;39709;53.334;6.534;2023-08-24T06:57:54;9.82;;;4.10;;
53801;SDS011;39709;53.334;6.534;2023-08-24T07:00:20;12.70;;;4.40;;
53801;SDS011;39709;53.334;6.534;2023-08-24T07:02:46;9.43;;;3.80;;
53801;SDS011;39709;53.334;6.534;2023-08-24T07:05:13;9.88;;;4.00;;
53801;SDS011;39709;53.334;6.534;2023-08-24T07:07:39;14.27;;;4.18;;
53801;SDS011;39709;53.334;6.534;2023-08-24T07:10:05;9.90;;;4.00;;
53801;SDS011;39709;53.334;6.534;2023-08-24T07:12:31;10.57;;;3.90;;
53801;SDS011;39709;53.334;6.534;2023-08-24T07:14:57;2.03;;;0.70;;
53801;SDS011;39709;53.334;6.534;2023-08-24T07:17:23;6.97;;;2.60;;
53801;SDS011;39709;53.334;6.534;2023-08-24T07:19:49;6.70;;;2.28;;
53801;SDS011;39709;53.334;6.534;2023-08-24T07:22:15;8.43;;;2.50;;
53801;SDS011;39709;53.334;6.534;2023-08-24T07:24:41;6.57;;;2.20;;
53801;SDS011;39709;53.334;6.534;2023-08-24T07:27:07;6.93;;;3.03;;
53801;SDS011;39709;53.334;6.534;2023-08-24T07:29:33;7.30;;;2.25;;
53801;SDS011;39709;53.334;6.534;2023-08-24T07:31:59;4.80;;;1.20;;
53801;SDS011;39709;53.334;6.534;2023-08-24T07:34:25;4.65;;;1.55;;
53801;SDS011;39709;53.334;6.534;2023-08-24T07:36:51;1.33;;;0.40;;
53801;SDS011;39709;53.334;6.534;2023-08-24T07:39:17;2.47;;;0.60;;
53801;SDS011;39709;53.334;6.534;2023-08-24T07:41:42;10.88;;;2.88;;
53801;SDS011;39709;53.334;6.534;2023-08-24T07:44:09;3.20;;;1.17;;
53801;SDS011;39709;53.334;6.534;2023-08-24T07:46:34;7.03;;;2.17;;
53801;SDS011;39709;53.334;6.534;2023-08-24T07:49:00;10.63;;;3.20;;
53801;SDS011;39709;53.334;6.534;2023-08-24T07:51:26;4.50;;;1.47;;
53801;SDS011;39709;53.334;6.534;2023-08-24T07:53:52;6.00;;;1.67;;
53801;SDS011;39709;53.334;6.534;2023-08-24T07:56:18;3.97;;;1.40;;
53801;SDS011;39709;53.334;6.534;2023-08-24T07:58:44;8.77;;;1.55;;
53801;SDS011;39709;53.334;6.534;2023-08-24T08:01:10;5.10;;;1.92;;
53801;SDS011;39709;53.334;6.534;2023-08-24T08:03:36;6.28;;;2.10;;
53801;SDS011;39709;53.334;6.534;2023-08-24T08:06:02;10.53;;;3.60;;
53801;SDS011;39709;53.334;6.534;2023-08-24T08:08:29;9.90;;;3.78;;
53801;SDS011;39709;53.334;6.534;2023-08-24T08:10:59;13.15;;;3.55;;
53801;SDS011;39709;53.334;6.534;2023-08-24T08:13:25;5.63;;;1.70;;
53801;SDS011;39709;53.334;6.534;2023-08-24T08:15:52;4.28;;;1.30;;
53801;SDS011;39709;53.334;6.534;2023-08-24T08:18:18;11.63;;;3.80;;
53801;SDS011;39709;53.334;6.534;2023-08-24T08:20:44;8.33;;;4.20;;
53801;SDS011;39709;53.334;6.534;2023-08-24T08:23:10;9.13;;;3.83;;
53801;SDS011;39709;53.334;6.534;2023-08-24T08:25:35;7.10;;;2.60;;
53801;SDS011;39709;53.334;6.534;2023-08-24T08:28:01;5.03;;;1.67;;
53801;SDS011;39709;53.334;6.534;2023-08-24T08:30:27;7.90;;;4.00;;
53801;SDS011;39709;53.334;6.534;2023-08-24T08:32:52;7.45;;;2.50;;
53801;SDS011;39709;53.334;6.534;2023-08-24T08:35:19;3.03;;;0.93;;
53801;SDS011;39709;53.334;6.534;2023-08-24T08:37:47;6.57;;;1.80;;
53801;SDS011;39709;53.334;6.534;2023-08-24T08:40:14;5.68;;;1.98;;
53801;SDS011;39709;53.334;6.534;2023-08-24T08:42:40;7.35;;;2.45;;
53801;SDS011;39709;53.334;6.534;2023-08-24T08:45:08;9.50;;;3.67;;
53801;SDS011;39709;53.334;6.534;2023-08-24T08:47:34;1.95;;;0.60;;
53801;SDS011;39709;53.334;6.534;2023-08-24T08:50:01;4.18;;;1.10;;
53801;SDS011;39709;53.334;6.534;2023-08-24T08:52:28;3.53;;;1.23;;
53801;SDS011;39709;53.334;6.534;2023-08-24T08:54:54;9.17;;;2.30;;
53801;SDS011;39709;53.334;6.534;2023-08-24T08:57:21;7.40;;;2.85;;
53801;SDS011;39709;53.334;6.534;2023-08-24T08:59:50;3.80;;;1.20;;
53801;SDS011;39709;53.334;6.534;2023-08-24T09:02:17;6.10;;;1.55;;
53801;SDS011;39709;53.334;6.534;2023-08-24T09:04:45;7.60;;;2.57;;
53801;SDS011;39709;53.334;6.534;2023-08-24T09:07:13;2.70;;;0.80;;
53801;SDS011;39709;53.334;6.534;2023-08-24T09:09:38;6.93;;;2.35;;
53801;SDS011;39709;53.334;6.534;2023-08-24T09:12:05;8.95;;;3.03;;
53801;SDS011;39709;53.334;6.534;2023-08-24T09:14:32;9.20;;;4.13;;
53801;SDS011;39709;53.334;6.534;2023-08-24T09:16:58;8.75;;;4.15;;
53801;SDS011;39709;53.334;6.534;2023-08-24T09:19:28;7.53;;;3.22;;
53801;SDS011;39709;53.334;6.534;2023-08-24T09:21:58;7.75;;;3.63;;
53801;SDS011;39709;53.334;6.534;2023-08-24T09:24:29;8.67;;;3.43;;
53801;SDS011;39709;53.334;6.534;2023-08-24T09:26:59;8.55;;;4.15;;
53801;SDS011;39709;53.334;6.534;2023-08-24T09:29:39;8.88;;;3.70;;
53801;SDS011;39709;53.334;6.534;2023-08-24T09:32:07;9.50;;;3.33;;
53801;SDS011;39709;53.334;6.534;2023-08-24T09:34:33;8.37;;;3.10;;
53801;SDS011;39709;53.334;6.534;2023-08-24T09:37:01;7.85;;;4.00;;
53801;SDS011;39709;53.334;6.534;2023-08-24T09:39:29;10.93;;;4.55;;
53801;SDS011;39709;53.334;6.534;2023-08-24T09:41:55;9.48;;;3.22;;
53801;SDS011;39709;53.334;6.534;2023-08-24T09:44:28;9.43;;;4.10;;
53801;SDS011;39709;53.334;6.534;2023-08-24T09:46:54;8.50;;;4.25;;
53801;SDS011;39709;53.334;6.534;2023-08-24T09:49:20;7.85;;;4.10;;
53801;SDS011;39709;53.334;6.534;2023-08-24T09:51:46;7.57;;;3.70;;
53801;SDS011;39709;53.334;6.534;2023-08-24T09:54:13;9.77;;;4.15;;
53801;SDS011;39709;53.334;6.534;2023-08-24T09:56:42;11.70;;;4.57;;
53801;SDS011;39709;53.334;6.534;2023-08-24T09:59:15;9.70;;;3.53;;
53801;SDS011;39709;53.334;6.534;2023-08-24T10:01:47;9.35;;;3.97;;
53801;SDS011;39709;53.334;6.534;2023-08-24T10:04:14;7.70;;;4.40;;
53801;SDS011;39709;53.334;6.534;2023-08-24T10:06:42;8.25;;;4.50;;
53801;SDS011;39709;53.334;6.534;2023-08-24T10:09:11;7.72;;;3.80;;
53801;SDS011;39709;53.334;6.534;2023-08-24T10:11:47;9.82;;;4.25;;
53801;SDS011;39709;53.334;6.534;2023-08-24T10:14:24;9.07;;;4.13;;
53801;SDS011;39709;53.334;6.534;2023-08-24T10:16:56;9.70;;;3.50;;
53801;SDS011;39709;53.334;6.534;2023-08-24T10:19:22;8.25;;;3.97;;
53801;SDS011;39709;53.334;6.534;2023-08-24T10:21:50;8.45;;;3.88;;
53801;SDS011;39709;53.334;6.534;2023-08-24T10:24:18;11.77;;;4.30;;
53801;SDS011;39709;53.334;6.534;2023-08-24T10:26:46;10.93;;;4.10;;
53801;SDS011;39709;53.334;6.534;2023-08-24T10:29:12;9.63;;;4.00;;
53801;SDS011;39709;53.334;6.534;2023-08-24T10:31:40;8.98;;;4.03;;
53801;SDS011;39709;53.334;6.534;2023-08-24T10:34:06;9.35;;;3.65;;
53801;SDS011;39709;53.334;6.534;2023-08-24T10:36:33;9.07;;;4.43;;
53801;SDS011;39709;53.334;6.534;2023-08-24T10:39:02;5.82;;;2.42;;
53801;SDS011;39709;53.334;6.534;2023-08-24T10:41:51;7.83;;;3.47;;
53801;SDS011;39709;53.334;6.534;2023-08-24T10:44:36;6.22;;;2.67;;
53801;SDS011;39709;53.334;6.534;2023-08-24T10:47:06;4.75;;;1.85;;
53801;SDS011;39709;53.334;6.534;2023-08-24T10:49:45;8.95;;;3.42;;
53801;SDS011;39709;53.334;6.534;2023-08-24T10:52:35;12.23;;;4.93;;
53801;SDS011;39709;53.334;6.534;2023-08-24T10:55:03;9.63;;;3.63;;
53801;SDS011;39709;53.334;6.534;2023-08-24T10:57:37;5.70;;;1.90;;
53801;SDS011;39709;53.334;6.534;2023-08-24T11:10:18;11.63;;;5.85;;
53801;SDS011;39709;53.334;6.534;2023-08-24T11:13:04;11.65;;;5.53;;
53801;SDS011;39709;53.334;6.534;2023-08-24T11:15:30;10.45;;;5.75;;
53801;SDS011;39709;53.334;6.534;2023-08-24T11:21:03;10.13;;;5.57;;
53801;SDS011;39709;53.334;6.534;2023-08-24T11:23:30;13.25;;;6.45;;
53801;SDS011;39709;53.334;6.534;2023-08-24T11:25:57;11.13;;;5.82;;
53801;SDS011;39709;53.334;6.534;2023-08-24T11:28:27;13.32;;;6.10;;
53801;SDS011;39709;53.334;6.534;2023-08-24T11:30:55;13.18;;;6.10;;
53801;SDS011;39709;53.334;6.534;2023-08-24T11:33:34;11.40;;;5.70;;
53801;SDS011;39709;53.334;6.534;2023-08-24T11:36:00;13.70;;;5.90;;
53801;SDS011;39709;53.334;6.534;2023-08-24T11:38:41;12.27;;;6.15;;
53801;SDS011;39709;53.334;6.534;2023-08-24T11:41:13;12.13;;;6.32;;
53801;SDS011;39709;53.334;6.534;2023-08-24T11:43:41;15.25;;;7.18;;
53801;SDS011;39709;53.334;6.534;2023-08-24T11:46:07;12.10;;;6.40;;
53801;SDS011;39709;53.334;6.534;2023-08-24T11:48:33;15.50;;;6.32;;
53801;SDS011;39709;53.334;6.534;2023-08-24T11:51:01;14.40;;;6.53;;
53801;SDS011;39709;53.334;6.534;2023-08-24T11:53:28;13.73;;;7.10;;
53801;SDS011;39709;53.334;6.534;2023-08-24T11:55:57;11.47;;;7.30;;
53801;SDS011;39709;53.334;6.534;2023-08-24T11:58:24;15.43;;;7.68;;
53801;SDS011;39709;53.334;6.534;2023-08-24T12:00:49;14.38;;;7.25;;
53801;SDS011;39709;53.334;6.534;2023-08-24T12:03:15;12.33;;;7.83;;
53801;SDS011;39709;53.334;6.534;2023-08-24T12:05:41;13.93;;;7.53;;
53801;SDS011;39709;53.334;6.534;2023-08-24T12:08:07;12.50;;;7.80;;
53801;SDS011;39709;53.334;6.534;2023-08-24T12:10:41;13.18;;;7.70;;
53801;SDS011;39709;53.334;6.534;2023-08-24T12:13:11;15.00;;;7.50;;
53801;SDS011;39709;53.334;6.534;2023-08-24T12:15:37;15.48;;;8.40;;
53801;SDS011;39709;53.334;6.534;2023-08-24T12:18:06;12.97;;;8.23;;
53801;SDS011;39709;53.334;6.534;2023-08-24T12:20:36;15.30;;;7.65;;
53801;SDS011;39709;53.334;6.534;2023-08-24T12:23:02;15.95;;;8.02;;
53801;SDS011;39709;53.334;6.534;2023-08-24T12:25:28;12.95;;;8.05;;
53801;SDS011;39709;53.334;6.534;2023-08-24T12:28:10;14.93;;;8.20;;
53801;SDS011;39709;53.334;6.534;2023-08-24T12:30:43;16.50;;;7.82;;
53801;SDS011;39709;53.334;6.534;2023-08-24T12:33:20;15.60;;;7.72;;
53801;SDS011;39709;53.334;6.534;2023-08-24T12:35:50;12.57;;;7.78;;
53801;SDS011;39709;53.334;6.534;2023-08-24T12:38:17;13.50;;;8.13;;
53801;SDS011;39709;53.334;6.534;2023-08-24T12:40:43;12.10;;;7.80;;
53801;SDS011;39709;53.334;6.534;2023-08-24T12:43:09;15.25;;;8.23;;
53801;SDS011;39709;53.334;6.534;2023-08-24T12:45:34;14.83;;;7.27;;
53801;SDS011;39709;53.334;6.534;2023-08-24T12:48:03;14.18;;;8.45;;
53801;SDS011;39709;53.334;6.534;2023-08-24T12:50:32;13.13;;;7.75;;
53801;SDS011;39709;53.334;6.534;2023-08-24T12:52:59;15.18;;;7.50;;
53801;SDS011;39709;53.334;6.534;2023-08-24T12:55:28;13.13;;;7.60;;
53801;SDS011;39709;53.334;6.534;2023-08-24T12:57:54;13.30;;;7.70;;
53801;SDS011;39709;53.334;6.534;2023-08-24T13:00:20;14.15;;;7.40;;
53801;SDS011;39709;53.334;6.534;2023-08-24T13:02:47;14.07;;;7.60;;
53801;SDS011;39709;53.334;6.534;2023-08-24T13:05:14;12.83;;;7.27;;
53801;SDS011;39709;53.334;6.534;2023-08-24T13:07:39;13.57;;;7.70;;
53801;SDS011;39709;53.334;6.534;2023-08-24T13:10:05;11.97;;;6.57;;
53801;SDS011;39709;53.334;6.534;2023-08-24T13:12:32;12.98;;;6.00;;
53801;SDS011;39709;53.334;6.534;2023-08-24T13:14:58;12.60;;;6.63;;
53801;SDS011;39709;53.334;6.534;2023-08-24T13:17:23;12.87;;;7.67;;
53801;SDS011;39709;53.334;6.534;2023-08-24T13:19:49;14.23;;;8.60;;
53801;SDS011;39709;53.334;6.534;2023-08-24T13:22:15;13.37;;;8.53;;
53801;SDS011;39709;53.334;6.534;2023-08-24T13:24:41;9.75;;;5.05;;
53801;SDS011;39709;53.334;6.534;2023-08-24T13:27:10;15.23;;;8.60;;
53801;SDS011;39709;53.334;6.534;2023-08-24T13:29:39;13.07;;;8.70;;
53801;SDS011;39709;53.334;6.534;2023-08-24T13:32:05;16.20;;;8.80;;
53801;SDS011;39709;53.334;6.534;2023-08-24T13:34:31;13.18;;;8.38;;
53801;SDS011;39709;53.334;6.534;2023-08-24T13:36:57;11.87;;;6.80;;
53801;SDS011;39709;53.334;6.534;2023-08-24T13:39:26;9.30;;;5.68;;
53801;SDS011;39709;53.334;6.534;2023-08-24T13:41:56;15.23;;;7.53;;
53801;SDS011;39709;53.334;6.534;2023-08-24T13:44:21;13.02;;;7.95;;
53801;SDS011;39709;53.334;6.534;2023-08-24T13:46:47;14.97;;;9.50;;
53801;SDS011;39709;53.334;6.534;2023-08-24T13:49:13;14.80;;;9.75;;
53801;SDS011;39709;53.334;6.534;2023-08-24T13:51:39;15.13;;;9.53;;
53801;SDS011;39709;53.334;6.534;2023-08-24T13:54:13;16.23;;;9.80;;
53801;SDS011;39709;53.334;6.534;2023-08-24T13:56:40;14.35;;;9.40;;
53801;SDS011;39709;53.334;6.534;2023-08-24T13:59:05;34.63;;;9.73;;
53801;SDS011;39709;53.334;6.534;2023-08-24T14:01:31;17.07;;;10.00;;
53801;SDS011;39709;53.334;6.534;2023-08-24T14:03:57;15.63;;;9.57;;
53801;SDS011;39709;53.334;6.534;2023-08-24T14:06:22;13.93;;;9.50;;
53801;SDS011;39709;53.334;6.534;2023-08-24T14:08:48;15.15;;;10.07;;
53801;SDS011;39709;53.334;6.534;2023-08-24T14:11:14;16.40;;;10.17;;
53801;SDS011;39709;53.334;6.534;2023-08-24T14:13:41;14.93;;;9.75;;
53801;SDS011;39709;53.334;6.534;2023-08-24T14:16:07;14.35;;;9.95;;
53801;SDS011;39709;53.334;6.534;2023-08-24T14:18:33;16.17;;;10.17;;
53801;SDS011;39709;53.334;6.534;2023-08-24T14:21:01;17.73;;;10.77;;
53801;SDS011;39709;53.334;6.534;2023-08-24T14:23:28;21.70;;;10.80;;
53801;SDS011;39709;53.334;6.534;2023-08-24T14:25:53;17.60;;;10.23;;
53801;SDS011;39709;53.334;6.534;2023-08-24T14:28:20;16.20;;;10.68;;
53801;SDS011;39709;53.334;6.534;2023-08-24T14:30:47;14.20;;;9.55;;
53801;SDS011;39709;53.334;6.534;2023-08-24T14:33:16;18.38;;;11.63;;
53801;SDS011;39709;53.334;6.534;2023-08-24T14:35:49;16.73;;;11.20;;
53801;SDS011;39709;53.334;6.534;2023-08-24T14:38:16;17.20;;;11.13;;
53801;SDS011;39709;53.334;6.534;2023-08-24T14:40:41;13.07;;;10.00;;
53801;SDS011;39709;53.334;6.534;2023-08-24T14:43:07;14.47;;;9.17;;
53801;SDS011;39709;53.334;6.534;2023-08-24T14:45:33;17.47;;;9.77;;
53801;SDS011;39709;53.334;6.534;2023-08-24T14:47:58;14.65;;;8.85;;
53801;SDS011;39709;53.334;6.534;2023-08-24T14:50:24;16.87;;;11.03;;
53801;SDS011;39709;53.334;6.534;2023-08-24T14:52:50;14.82;;;10.00;;
53801;SDS011;39709;53.334;6.534;2023-08-24T14:55:15;16.30;;;10.57;;
53801;SDS011;39709;53.334;6.534;2023-08-24T14:57:43;14.95;;;10.32;;
53801;SDS011;39709;53.334;6.534;2023-08-24T15:00:09;14.02;;;9.85;;
53801;SDS011;39709;53.334;6.534;2023-08-24T15:02:35;15.32;;;10.30;;